sensor_id;sensor_type;location;lat;lon;timestamp;P1;durP1;ratioP1;P2;durP2;ratioP2
14030;SDS011;7090;49.436;8.490;2023-04-24T00:02:10;6.50;;;6.20;;
14030;SDS011;7090;49.436;8.490;2023-04-24T00:04:37;6.60;;;6.30;;
14030;SDS011;7090;49.436;8.490;2023-04-24T00:07:06;7.13;;;6.53;;
14030;SDS011;7090;49.436;8.490;2023-04-24T00:09:35;6.60;;;6.30;;
14030;SDS011;7090;49.436;8.490;2023-04-24T00:12:00;6.43;;;6.23;;
14030;SDS011;7090;49.436;8.490;2023-04-24T00:14:29;6.60;;;6.30;;
14030;SDS011;7090;49.436;8.490;2023-04-24T00:16:55;6.83;;;6.53;;
14030;SDS011;7090;49.436;8.490;2023-04-24T00:19:21;6.63;;;6.40;;
14030;SDS011;7090;49.436;8.490;2023-04-24T00:21:47;7.17;;;6.87;;
14030;SDS011;7090;49.436;8.490;2023-04-24T00:24:14;7.10;;;6.70;;
14030;SDS011;7090;49.436;8.490;2023-04-24T00:26:41;7.13;;;6.73;;
14030;SDS011;7090;49.436;8.490;2023-04-24T00:29:06;7.60;;;7.13;;
14030;SDS011;7090;49.436;8.490;2023-04-24T00:31:32;6.77;;;6.47;;
14030;SDS011;7090;49.436;8.490;2023-04-24T00:33:59;6.50;;;6.23;;
14030;SDS011;7090;49.436;8.490;2023-04-24T00:36:26;6.63;;;6.33;;
14030;SDS011;7090;49.436;8.490;2023-04-24T00:38:52;6.67;;;6.37;;
14030;SDS011;7090;49.436;8.490;2023-04-24T00:41:18;7.20;;;6.90;;
14030;SDS011;7090;49.436;8.490;2023-04-24T00:43:43;6.93;;;6.53;;
14030;SDS011;7090;49.436;8.490;2023-04-24T00:46:09;6.17;;;5.87;;
14030;SDS011;7090;49.436;8.490;2023-04-24T00:48:36;6.97;;;6.67;;
14030;SDS011;7090;49.436;8.490;2023-04-24T00:51:04;6.63;;;6.17;;
14030;SDS011;7090;49.436;8.490;2023-04-24T00:53:29;6.40;;;6.10;;
14030;SDS011;7090;49.436;8.490;2023-04-24T00:55:55;6.37;;;6.03;;
14030;SDS011;7090;49.436;8.490;2023-04-24T00:58:22;5.60;;;5.40;;
14030;SDS011;7090;49.436;8.490;2023-04-24T01:00:48;6.70;;;6.40;;
14030;SDS011;7090;49.436;8.490;2023-04-24T01:03:18;6.10;;;5.90;;
14030;SDS011;7090;49.436;8.490;2023-04-24T01:05:45;6.40;;;6.00;;
14030;SDS011;7090;49.436;8.490;2023-04-24T01:08:11;6.27;;;5.97;;
14030;SDS011;7090;49.436;8.490;2023-04-24T01:10:36;6.00;;;5.70;;
14030;SDS011;7090;49.436;8.490;2023-04-24T01:13:05;6.87;;;6.50;;
14030;SDS011;7090;49.436;8.490;2023-04-24T01:15:30;6.47;;;6.17;;
14030;SDS011;7090;49.436;8.490;2023-04-24T01:17:56;6.60;;;6.30;;
14030;SDS011;7090;49.436;8.490;2023-04-24T01:20:22;6.50;;;6.13;;
14030;SDS011;7090;49.436;8.490;2023-04-24T01:22:49;6.40;;;6.10;;
14030;SDS011;7090;49.436;8.490;2023-04-24T01:25:15;6.50;;;6.20;;
14030;SDS011;7090;49.436;8.490;2023-04-24T01:27:40;6.90;;;6.30;;
14030;SDS011;7090;49.436;8.490;2023-04-24T01:30:06;7.40;;;6.90;;
14030;SDS011;7090;49.436;8.490;2023-04-24T01:32:33;8.43;;;7.83;;
14030;SDS011;7090;49.436;8.490;2023-04-24T01:34:59;7.07;;;6.63;;
14030;SDS011;7090;49.436;8.490;2023-04-24T01:37:25;5.97;;;5.77;;
14030;SDS011;7090;49.436;8.490;2023-04-24T01:39:51;6.73;;;6.43;;
14030;SDS011;7090;49.436;8.490;2023-04-24T01:42:17;7.10;;;6.77;;
14030;SDS011;7090;49.436;8.490;2023-04-24T01:44:43;6.87;;;6.47;;
14030;SDS011;7090;49.436;8.490;2023-04-24T01:47:09;7.03;;;6.53;;
14030;SDS011;7090;49.436;8.490;2023-04-24T01:49:35;6.40;;;6.00;;
14030;SDS011;7090;49.436;8.490;2023-04-24T01:52:03;6.60;;;6.23;;
14030;SDS011;7090;49.436;8.490;2023-04-24T01:54:29;6.87;;;6.50;;
14030;SDS011;7090;49.436;8.490;2023-04-24T01:56:55;6.53;;;6.23;;
14030;SDS011;7090;49.436;8.490;2023-04-24T01:59:20;6.13;;;5.93;;
14030;SDS011;7090;49.436;8.490;2023-04-24T02:01:48;6.10;;;5.80;;
14030;SDS011;7090;49.436;8.490;2023-04-24T02:04:13;6.73;;;6.40;;
14030;SDS011;7090;49.436;8.490;2023-04-24T02:06:40;6.47;;;6.10;;
14030;SDS011;7090;49.436;8.490;2023-04-24T02:09:05;6.87;;;6.40;;
14030;SDS011;7090;49.436;8.490;2023-04-24T02:11:31;6.10;;;5.90;;
14030;SDS011;7090;49.436;8.490;2023-04-24T02:13:57;6.20;;;6.00;;
14030;SDS011;7090;49.436;8.490;2023-04-24T02:16:22;6.93;;;6.53;;
14030;SDS011;7090;49.436;8.490;2023-04-24T02:18:48;6.10;;;5.80;;
14030;SDS011;7090;49.436;8.490;2023-04-24T02:21:14;6.40;;;6.10;;
14030;SDS011;7090;49.436;8.490;2023-04-24T02:23:39;6.70;;;6.17;;
14030;SDS011;7090;49.436;8.490;2023-04-24T02:26:05;7.37;;;6.77;;
14030;SDS011;7090;49.436;8.490;2023-04-24T02:28:31;6.53;;;6.10;;
14030;SDS011;7090;49.436;8.490;2023-04-24T02:30:56;7.03;;;6.57;;
14030;SDS011;7090;49.436;8.490;2023-04-24T02:33:22;6.63;;;6.33;;
14030;SDS011;7090;49.436;8.490;2023-04-24T02:35:48;6.70;;;6.40;;
14030;SDS011;7090;49.436;8.490;2023-04-24T02:38:13;6.67;;;6.47;;
14030;SDS011;7090;49.436;8.490;2023-04-24T02:40:39;6.40;;;6.10;;
14030;SDS011;7090;49.436;8.490;2023-04-24T02:43:04;6.63;;;6.33;;
14030;SDS011;7090;49.436;8.490;2023-04-24T02:45:30;6.60;;;6.30;;
14030;SDS011;7090;49.436;8.490;2023-04-24T02:47:55;6.70;;;6.33;;
14030;SDS011;7090;49.436;8.490;2023-04-24T02:50:21;8.23;;;7.83;;
14030;SDS011;7090;49.436;8.490;2023-04-24T02:52:47;8.27;;;7.87;;
14030;SDS011;7090;49.436;8.490;2023-04-24T02:55:12;9.03;;;8.53;;
14030;SDS011;7090;49.436;8.490;2023-04-24T02:57:38;10.00;;;9.23;;
14030;SDS011;7090;49.436;8.490;2023-04-24T03:00:03;8.47;;;8.17;;
14030;SDS011;7090;49.436;8.490;2023-04-24T03:02:32;9.50;;;8.83;;
14030;SDS011;7090;49.436;8.490;2023-04-24T03:04:57;9.17;;;8.77;;
14030;SDS011;7090;49.436;8.490;2023-04-24T03:07:23;8.93;;;8.53;;
14030;SDS011;7090;49.436;8.490;2023-04-24T03:09:49;8.97;;;8.57;;
14030;SDS011;7090;49.436;8.490;2023-04-24T03:12:14;8.60;;;8.20;;
14030;SDS011;7090;49.436;8.490;2023-04-24T03:14:42;8.80;;;8.50;;
14030;SDS011;7090;49.436;8.490;2023-04-24T03:17:08;8.97;;;8.57;;
14030;SDS011;7090;49.436;8.490;2023-04-24T03:19:33;9.07;;;8.67;;
14030;SDS011;7090;49.436;8.490;2023-04-24T03:22:01;9.83;;;9.33;;
14030;SDS011;7090;49.436;8.490;2023-04-24T03:24:27;9.03;;;8.63;;
14030;SDS011;7090;49.436;8.490;2023-04-24T03:26:53;10.23;;;9.63;;
14030;SDS011;7090;49.436;8.490;2023-04-24T03:29:18;9.93;;;9.43;;
14030;SDS011;7090;49.436;8.490;2023-04-24T03:31:44;9.80;;;9.40;;
14030;SDS011;7090;49.436;8.490;2023-04-24T03:34:10;9.53;;;9.13;;
14030;SDS011;7090;49.436;8.490;2023-04-24T03:36:36;9.40;;;9.00;;
14030;SDS011;7090;49.436;8.490;2023-04-24T03:39:01;9.50;;;8.90;;
14030;SDS011;7090;49.436;8.490;2023-04-24T03:41:27;8.73;;;8.33;;
14030;SDS011;7090;49.436;8.490;2023-04-24T03:43:52;8.80;;;8.30;;
14030;SDS011;7090;49.436;8.490;2023-04-24T03:46:18;8.17;;;7.80;;
14030;SDS011;7090;49.436;8.490;2023-04-24T03:48:43;7.60;;;7.30;;
14030;SDS011;7090;49.436;8.490;2023-04-24T03:51:09;8.20;;;7.90;;
14030;SDS011;7090;49.436;8.490;2023-04-24T03:53:35;8.07;;;7.77;;
14030;SDS011;7090;49.436;8.490;2023-04-24T03:56:00;7.90;;;7.60;;
14030;SDS011;7090;49.436;8.490;2023-04-24T03:58:26;7.57;;;7.27;;
14030;SDS011;7090;49.436;8.490;2023-04-24T04:00:51;8.00;;;7.70;;
14030;SDS011;7090;49.436;8.490;2023-04-24T04:03:17;8.53;;;8.23;;
14030;SDS011;7090;49.436;8.490;2023-04-24T04:05:42;8.20;;;7.90;;
14030;SDS011;7090;49.436;8.490;2023-04-24T04:08:08;8.57;;;8.27;;
14030;SDS011;7090;49.436;8.490;2023-04-24T04:10:34;9.30;;;8.90;;
14030;SDS011;7090;49.436;8.490;2023-04-24T04:12:59;9.10;;;8.70;;
14030;SDS011;7090;49.436;8.490;2023-04-24T04:15:25;8.25;;;7.95;;
14030;SDS011;7090;49.436;8.490;2023-04-24T04:17:50;8.30;;;8.00;;
14030;SDS011;7090;49.436;8.490;2023-04-24T04:20:16;8.80;;;8.40;;
14030;SDS011;7090;49.436;8.490;2023-04-24T04:22:42;8.70;;;8.40;;
14030;SDS011;7090;49.436;8.490;2023-04-24T04:25:07;8.40;;;8.10;;
14030;SDS011;7090;49.436;8.490;2023-04-24T04:27:33;8.40;;;8.10;;
14030;SDS011;7090;49.436;8.490;2023-04-24T04:30:00;8.40;;;8.10;;
14030;SDS011;7090;49.436;8.490;2023-04-24T04:32:29;8.60;;;8.30;;
14030;SDS011;7090;49.436;8.490;2023-04-24T04:35:01;8.68;;;8.27;;
14030;SDS011;7090;49.436;8.490;2023-04-24T04:37:29;8.07;;;7.77;;
14030;SDS011;7090;49.436;8.490;2023-04-24T04:39:56;9.03;;;8.60;;
14030;SDS011;7090;49.436;8.490;2023-04-24T04:42:25;7.70;;;7.40;;
14030;SDS011;7090;49.436;8.490;2023-04-24T04:44:52;9.03;;;8.53;;
14030;SDS011;7090;49.436;8.490;2023-04-24T04:47:18;8.43;;;8.03;;
14030;SDS011;7090;49.436;8.490;2023-04-24T04:49:49;8.20;;;7.80;;
14030;SDS011;7090;49.436;8.490;2023-04-24T04:52:16;8.33;;;7.93;;
14030;SDS011;7090;49.436;8.490;2023-04-24T04:54:42;8.50;;;8.10;;
14030;SDS011;7090;49.436;8.490;2023-04-24T04:57:08;8.20;;;7.80;;
14030;SDS011;7090;49.436;8.490;2023-04-24T04:59:34;7.97;;;7.57;;
14030;SDS011;7090;49.436;8.490;2023-04-24T05:02:00;8.33;;;7.93;;
14030;SDS011;7090;49.436;8.490;2023-04-24T05:04:25;8.40;;;7.90;;
14030;SDS011;7090;49.436;8.490;2023-04-24T05:06:51;8.40;;;7.90;;
14030;SDS011;7090;49.436;8.490;2023-04-24T05:09:17;7.50;;;7.20;;
14030;SDS011;7090;49.436;8.490;2023-04-24T05:11:43;8.63;;;8.23;;
14030;SDS011;7090;49.436;8.490;2023-04-24T05:14:09;8.80;;;8.30;;
14030;SDS011;7090;49.436;8.490;2023-04-24T05:16:35;8.00;;;7.67;;
14030;SDS011;7090;49.436;8.490;2023-04-24T05:19:01;8.47;;;8.07;;
14030;SDS011;7090;49.436;8.490;2023-04-24T05:21:27;8.53;;;8.13;;
14030;SDS011;7090;49.436;8.490;2023-04-24T05:23:53;8.50;;;8.10;;
14030;SDS011;7090;49.436;8.490;2023-04-24T05:26:19;8.80;;;8.40;;
14030;SDS011;7090;49.436;8.490;2023-04-24T05:28:44;9.23;;;8.73;;
14030;SDS011;7090;49.436;8.490;2023-04-24T05:31:10;8.20;;;7.80;;
14030;SDS011;7090;49.436;8.490;2023-04-24T05:33:37;8.60;;;8.20;;
14030;SDS011;7090;49.436;8.490;2023-04-24T05:36:03;8.93;;;8.47;;
14030;SDS011;7090;49.436;8.490;2023-04-24T05:38:30;8.93;;;8.43;;
14030;SDS011;7090;49.436;8.490;2023-04-24T05:40:55;8.90;;;8.30;;
14030;SDS011;7090;49.436;8.490;2023-04-24T05:43:21;7.50;;;7.20;;
14030;SDS011;7090;49.436;8.490;2023-04-24T05:45:47;8.57;;;8.10;;
14030;SDS011;7090;49.436;8.490;2023-04-24T05:48:12;9.23;;;8.73;;
14030;SDS011;7090;49.436;8.490;2023-04-24T05:50:38;10.10;;;9.57;;
14030;SDS011;7090;49.436;8.490;2023-04-24T05:53:03;9.97;;;9.27;;
14030;SDS011;7090;49.436;8.490;2023-04-24T05:55:30;10.10;;;9.50;;
14030;SDS011;7090;49.436;8.490;2023-04-24T05:57:56;8.60;;;8.20;;
14030;SDS011;7090;49.436;8.490;2023-04-24T06:00:22;9.60;;;9.00;;
14030;SDS011;7090;49.436;8.490;2023-04-24T06:02:48;7.93;;;7.53;;
14030;SDS011;7090;49.436;8.490;2023-04-24T06:05:14;10.03;;;9.30;;
14030;SDS011;7090;49.436;8.490;2023-04-24T06:07:40;10.00;;;9.40;;
14030;SDS011;7090;49.436;8.490;2023-04-24T06:10:05;10.17;;;9.40;;
14030;SDS011;7090;49.436;8.490;2023-04-24T06:12:31;10.03;;;9.13;;
14030;SDS011;7090;49.436;8.490;2023-04-24T06:14:57;9.00;;;8.40;;
14030;SDS011;7090;49.436;8.490;2023-04-24T06:17:23;8.97;;;8.47;;
14030;SDS011;7090;49.436;8.490;2023-04-24T06:19:48;10.40;;;9.50;;
14030;SDS011;7090;49.436;8.490;2023-04-24T06:22:14;10.23;;;9.53;;
14030;SDS011;7090;49.436;8.490;2023-04-24T06:24:40;10.40;;;9.70;;
14030;SDS011;7090;49.436;8.490;2023-04-24T06:27:05;8.60;;;8.10;;
14030;SDS011;7090;49.436;8.490;2023-04-24T06:29:32;8.27;;;7.68;;
14030;SDS011;7090;49.436;8.490;2023-04-24T06:31:58;8.20;;;7.80;;
14030;SDS011;7090;49.436;8.490;2023-04-24T06:34:24;8.00;;;7.50;;
14030;SDS011;7090;49.436;8.490;2023-04-24T06:36:49;7.50;;;7.20;;
14030;SDS011;7090;49.436;8.490;2023-04-24T06:39:15;9.10;;;8.60;;
14030;SDS011;7090;49.436;8.490;2023-04-24T06:41:41;8.83;;;8.43;;
14030;SDS011;7090;49.436;8.490;2023-04-24T06:44:06;8.80;;;8.40;;
14030;SDS011;7090;49.436;8.490;2023-04-24T06:46:32;8.67;;;8.20;;
14030;SDS011;7090;49.436;8.490;2023-04-24T06:48:58;7.60;;;7.30;;
14030;SDS011;7090;49.436;8.490;2023-04-24T06:51:23;9.27;;;8.77;;
14030;SDS011;7090;49.436;8.490;2023-04-24T06:53:51;8.23;;;7.73;;
14030;SDS011;7090;49.436;8.490;2023-04-24T06:56:17;8.53;;;7.90;;
14030;SDS011;7090;49.436;8.490;2023-04-24T06:58:42;7.97;;;7.67;;
14030;SDS011;7090;49.436;8.490;2023-04-24T07:01:08;8.40;;;8.00;;
14030;SDS011;7090;49.436;8.490;2023-04-24T07:03:34;8.10;;;7.60;;
14030;SDS011;7090;49.436;8.490;2023-04-24T07:06:00;9.00;;;8.50;;
14030;SDS011;7090;49.436;8.490;2023-04-24T07:08:26;8.63;;;8.23;;
14030;SDS011;7090;49.436;8.490;2023-04-24T07:10:51;8.07;;;7.77;;
14030;SDS011;7090;49.436;8.490;2023-04-24T07:13:17;8.07;;;7.77;;
14030;SDS011;7090;49.436;8.490;2023-04-24T07:15:43;7.67;;;7.37;;
14030;SDS011;7090;49.436;8.490;2023-04-24T07:18:08;8.10;;;7.70;;
14030;SDS011;7090;49.436;8.490;2023-04-24T07:20:34;7.90;;;7.50;;
14030;SDS011;7090;49.436;8.490;2023-04-24T07:23:00;8.13;;;7.53;;
14030;SDS011;7090;49.436;8.490;2023-04-24T07:25:26;8.67;;;8.27;;
14030;SDS011;7090;49.436;8.490;2023-04-24T07:27:51;7.70;;;7.40;;
14030;SDS011;7090;49.436;8.490;2023-04-24T07:30:17;7.60;;;7.30;;
14030;SDS011;7090;49.436;8.490;2023-04-24T07:32:43;8.87;;;8.47;;
14030;SDS011;7090;49.436;8.490;2023-04-24T07:35:09;8.90;;;8.50;;
14030;SDS011;7090;49.436;8.490;2023-04-24T07:37:35;9.03;;;8.53;;
14030;SDS011;7090;49.436;8.490;2023-04-24T07:40:01;9.80;;;9.20;;
14030;SDS011;7090;49.436;8.490;2023-04-24T07:42:27;8.50;;;8.00;;
14030;SDS011;7090;49.436;8.490;2023-04-24T07:44:55;9.07;;;8.47;;
14030;SDS011;7090;49.436;8.490;2023-04-24T07:47:21;9.17;;;8.77;;
14030;SDS011;7090;49.436;8.490;2023-04-24T07:49:47;8.43;;;8.03;;
14030;SDS011;7090;49.436;8.490;2023-04-24T07:52:13;8.50;;;8.10;;
14030;SDS011;7090;49.436;8.490;2023-04-24T07:54:38;8.60;;;8.10;;
14030;SDS011;7090;49.436;8.490;2023-04-24T07:57:04;8.23;;;7.73;;
14030;SDS011;7090;49.436;8.490;2023-04-24T07:59:31;7.93;;;7.53;;
14030;SDS011;7090;49.436;8.490;2023-04-24T08:01:57;7.30;;;6.90;;
14030;SDS011;7090;49.436;8.490;2023-04-24T08:04:22;7.50;;;7.00;;
14030;SDS011;7090;49.436;8.490;2023-04-24T08:06:48;7.57;;;7.27;;
14030;SDS011;7090;49.436;8.490;2023-04-24T08:09:14;7.53;;;7.23;;
14030;SDS011;7090;49.436;8.490;2023-04-24T08:11:39;7.40;;;7.00;;
14030;SDS011;7090;49.436;8.490;2023-04-24T08:14:05;7.50;;;7.10;;
14030;SDS011;7090;49.436;8.490;2023-04-24T08:16:32;7.67;;;7.30;;
14030;SDS011;7090;49.436;8.490;2023-04-24T08:18:58;7.00;;;6.70;;
14030;SDS011;7090;49.436;8.490;2023-04-24T08:21:23;7.10;;;6.80;;
14030;SDS011;7090;49.436;8.490;2023-04-24T08:23:51;7.20;;;6.90;;
14030;SDS011;7090;49.436;8.490;2023-04-24T08:26:16;7.27;;;6.87;;
14030;SDS011;7090;49.436;8.490;2023-04-24T08:28:42;7.30;;;6.90;;
14030;SDS011;7090;49.436;8.490;2023-04-24T08:31:07;7.97;;;7.57;;
14030;SDS011;7090;49.436;8.490;2023-04-24T08:33:33;7.25;;;6.95;;
14030;SDS011;7090;49.436;8.490;2023-04-24T08:36:03;7.70;;;7.30;;
14030;SDS011;7090;49.436;8.490;2023-04-24T08:38:30;7.87;;;7.33;;
14030;SDS011;7090;49.436;8.490;2023-04-24T08:40:59;7.30;;;7.00;;
14030;SDS011;7090;49.436;8.490;2023-04-24T08:43:26;7.32;;;7.03;;
14030;SDS011;7090;49.436;8.490;2023-04-24T08:45:52;7.82;;;7.32;;
14030;SDS011;7090;49.436;8.490;2023-04-24T08:48:20;7.97;;;7.30;;
14030;SDS011;7090;49.436;8.490;2023-04-24T08:50:48;7.93;;;7.53;;
14030;SDS011;7090;49.436;8.490;2023-04-24T08:53:15;7.67;;;7.17;;
14030;SDS011;7090;49.436;8.490;2023-04-24T08:55:42;7.60;;;7.20;;
14030;SDS011;7090;49.436;8.490;2023-04-24T08:58:11;8.27;;;7.70;;
14030;SDS011;7090;49.436;8.490;2023-04-24T09:00:38;8.33;;;7.83;;
14030;SDS011;7090;49.436;8.490;2023-04-24T09:03:09;8.00;;;7.50;;
14030;SDS011;7090;49.436;8.490;2023-04-24T09:05:35;7.43;;;7.07;;
14030;SDS011;7090;49.436;8.490;2023-04-24T09:08:01;7.83;;;7.50;;
14030;SDS011;7090;49.436;8.490;2023-04-24T09:10:28;7.70;;;7.30;;
14030;SDS011;7090;49.436;8.490;2023-04-24T09:12:55;7.30;;;7.00;;
14030;SDS011;7090;49.436;8.490;2023-04-24T09:15:23;7.70;;;7.30;;
14030;SDS011;7090;49.436;8.490;2023-04-24T09:17:50;7.60;;;7.20;;
14030;SDS011;7090;49.436;8.490;2023-04-24T09:20:16;7.87;;;7.47;;
14030;SDS011;7090;49.436;8.490;2023-04-24T09:22:42;8.50;;;8.00;;
14030;SDS011;7090;49.436;8.490;2023-04-24T09:25:08;8.10;;;7.60;;
14030;SDS011;7090;49.436;8.490;2023-04-24T09:27:37;8.00;;;7.60;;
14030;SDS011;7090;49.436;8.490;2023-04-24T09:30:07;8.90;;;8.30;;
14030;SDS011;7090;49.436;8.490;2023-04-24T09:32:33;7.70;;;7.37;;
14030;SDS011;7090;49.436;8.490;2023-04-24T09:35:06;8.13;;;7.73;;
14030;SDS011;7090;49.436;8.490;2023-04-24T09:37:46;8.90;;;8.30;;
14030;SDS011;7090;49.436;8.490;2023-04-24T09:40:13;8.67;;;8.07;;
14030;SDS011;7090;49.436;8.490;2023-04-24T09:45:16;8.10;;;7.40;;
14030;SDS011;7090;49.436;8.490;2023-04-24T09:47:42;8.70;;;8.10;;
14030;SDS011;7090;49.436;8.490;2023-04-24T09:52:56;7.93;;;7.53;;
14030;SDS011;7090;49.436;8.490;2023-04-24T09:55:23;8.43;;;8.03;;
14030;SDS011;7090;49.436;8.490;2023-04-24T10:00:25;8.20;;;7.70;;
14030;SDS011;7090;49.436;8.490;2023-04-24T10:02:58;8.10;;;7.60;;
14030;SDS011;7090;49.436;8.490;2023-04-24T10:05:29;7.20;;;6.90;;
14030;SDS011;7090;49.436;8.490;2023-04-24T10:08:00;7.97;;;7.47;;
14030;SDS011;7090;49.436;8.490;2023-04-24T10:10:28;7.40;;;7.10;;
14030;SDS011;7090;49.436;8.490;2023-04-24T10:12:54;7.03;;;6.73;;
14030;SDS011;7090;49.436;8.490;2023-04-24T10:15:20;7.07;;;6.67;;
14030;SDS011;7090;49.436;8.490;2023-04-24T10:17:50;6.97;;;6.50;;
14030;SDS011;7090;49.436;8.490;2023-04-24T10:20:20;7.43;;;6.93;;
14030;SDS011;7090;49.436;8.490;2023-04-24T10:22:50;7.65;;;7.20;;
14030;SDS011;7090;49.436;8.490;2023-04-24T10:25:18;7.50;;;7.00;;
14030;SDS011;7090;49.436;8.490;2023-04-24T10:27:48;7.40;;;7.10;;
14030;SDS011;7090;49.436;8.490;2023-04-24T10:30:15;6.60;;;6.30;;
14030;SDS011;7090;49.436;8.490;2023-04-24T10:32:41;6.67;;;6.47;;
14030;SDS011;7090;49.436;8.490;2023-04-24T10:35:07;6.60;;;6.40;;
14030;SDS011;7090;49.436;8.490;2023-04-24T10:37:38;6.43;;;6.13;;
14030;SDS011;7090;49.436;8.490;2023-04-24T10:40:07;6.10;;;5.90;;
14030;SDS011;7090;49.436;8.490;2023-04-24T10:42:35;7.50;;;6.90;;
14030;SDS011;7090;49.436;8.490;2023-04-24T10:45:05;8.10;;;7.50;;
14030;SDS011;7090;49.436;8.490;2023-04-24T10:47:39;7.37;;;6.87;;
14030;SDS011;7090;49.436;8.490;2023-04-24T10:50:15;6.97;;;6.63;;
14030;SDS011;7090;49.436;8.490;2023-04-24T10:52:47;7.30;;;7.00;;
14030;SDS011;7090;49.436;8.490;2023-04-24T10:55:15;7.20;;;6.80;;
14030;SDS011;7090;49.436;8.490;2023-04-24T10:58:00;8.13;;;6.90;;
14030;SDS011;7090;49.436;8.490;2023-04-24T11:00:27;7.43;;;6.90;;
14030;SDS011;7090;49.436;8.490;2023-04-24T11:02:53;7.23;;;6.80;;
14030;SDS011;7090;49.436;8.490;2023-04-24T11:05:20;7.80;;;7.40;;
14030;SDS011;7090;49.436;8.490;2023-04-24T11:10:41;8.37;;;7.63;;
14030;SDS011;7090;49.436;8.490;2023-04-24T11:13:09;6.73;;;6.33;;
14030;SDS011;7090;49.436;8.490;2023-04-24T11:15:35;7.53;;;7.03;;
14030;SDS011;7090;49.436;8.490;2023-04-24T11:18:00;6.67;;;6.27;;
14030;SDS011;7090;49.436;8.490;2023-04-24T11:20:26;6.90;;;6.50;;
14030;SDS011;7090;49.436;8.490;2023-04-24T11:22:53;7.33;;;6.93;;
14030;SDS011;7090;49.436;8.490;2023-04-24T11:25:20;7.67;;;7.17;;
14030;SDS011;7090;49.436;8.490;2023-04-24T11:27:47;7.90;;;7.40;;
14030;SDS011;7090;49.436;8.490;2023-04-24T11:30:16;7.20;;;6.70;;
14030;SDS011;7090;49.436;8.490;2023-04-24T11:32:42;6.87;;;6.47;;
14030;SDS011;7090;49.436;8.490;2023-04-24T11:35:21;7.40;;;7.00;;
14030;SDS011;7090;49.436;8.490;2023-04-24T11:37:53;6.40;;;6.20;;
14030;SDS011;7090;49.436;8.490;2023-04-24T11:40:19;7.63;;;7.13;;
14030;SDS011;7090;49.436;8.490;2023-04-24T11:42:47;7.20;;;6.80;;
14030;SDS011;7090;49.436;8.490;2023-04-24T11:45:21;8.23;;;7.72;;
14030;SDS011;7090;49.436;8.490;2023-04-24T11:47:48;6.97;;;6.63;;
14030;SDS011;7090;49.436;8.490;2023-04-24T11:50:14;8.63;;;7.00;;
14030;SDS011;7090;49.436;8.490;2023-04-24T11:52:43;7.43;;;7.03;;
14030;SDS011;7090;49.436;8.490;2023-04-24T11:57:39;7.47;;;7.07;;
14030;SDS011;7090;49.436;8.490;2023-04-24T12:00:14;8.57;;;8.00;;
14030;SDS011;7090;49.436;8.490;2023-04-24T12:02:45;7.13;;;6.83;;
14030;SDS011;7090;49.436;8.490;2023-04-24T12:05:21;7.97;;;7.47;;
14030;SDS011;7090;49.436;8.490;2023-04-24T12:07:52;8.77;;;8.17;;
14030;SDS011;7090;49.436;8.490;2023-04-24T12:10:22;7.20;;;6.80;;
14030;SDS011;7090;49.436;8.490;2023-04-24T12:12:49;6.60;;;6.30;;
14030;SDS011;7090;49.436;8.490;2023-04-24T12:15:17;8.30;;;7.70;;
14030;SDS011;7090;49.436;8.490;2023-04-24T12:17:43;8.43;;;7.93;;
14030;SDS011;7090;49.436;8.490;2023-04-24T12:20:09;7.97;;;7.47;;
14030;SDS011;7090;49.436;8.490;2023-04-24T12:25:14;7.97;;;7.53;;
14030;SDS011;7090;49.436;8.490;2023-04-24T12:27:41;8.03;;;7.63;;
14030;SDS011;7090;49.436;8.490;2023-04-24T12:30:10;8.53;;;7.93;;
14030;SDS011;7090;49.436;8.490;2023-04-24T12:32:41;9.03;;;8.20;;
14030;SDS011;7090;49.436;8.490;2023-04-24T12:35:20;8.43;;;7.93;;
14030;SDS011;7090;49.436;8.490;2023-04-24T12:37:47;9.60;;;8.90;;
14030;SDS011;7090;49.436;8.490;2023-04-24T12:40:13;9.23;;;8.63;;
14030;SDS011;7090;49.436;8.490;2023-04-24T12:42:43;8.23;;;7.73;;
14030;SDS011;7090;49.436;8.490;2023-04-24T12:45:11;8.20;;;7.75;;
14030;SDS011;7090;49.436;8.490;2023-04-24T12:47:37;8.77;;;8.20;;
14030;SDS011;7090;49.436;8.490;2023-04-24T12:50:04;8.20;;;7.57;;
14030;SDS011;7090;49.436;8.490;2023-04-24T12:52:30;8.03;;;7.63;;
14030;SDS011;7090;49.436;8.490;2023-04-24T12:54:57;9.00;;;8.40;;
14030;SDS011;7090;49.436;8.490;2023-04-24T12:57:24;9.23;;;8.63;;
14030;SDS011;7090;49.436;8.490;2023-04-24T12:59:53;7.93;;;7.53;;
14030;SDS011;7090;49.436;8.490;2023-04-24T13:02:19;8.63;;;8.20;;
14030;SDS011;7090;49.436;8.490;2023-04-24T13:04:47;7.60;;;7.30;;
14030;SDS011;7090;49.436;8.490;2023-04-24T13:07:13;8.67;;;8.27;;
14030;SDS011;7090;49.436;8.490;2023-04-24T13:09:39;9.53;;;9.00;;
14030;SDS011;7090;49.436;8.490;2023-04-24T13:12:06;8.63;;;8.23;;
14030;SDS011;7090;49.436;8.490;2023-04-24T13:14:32;8.93;;;8.17;;
14030;SDS011;7090;49.436;8.490;2023-04-24T13:16:58;9.07;;;8.43;;
14030;SDS011;7090;49.436;8.490;2023-04-24T13:19:27;8.77;;;8.38;;
14030;SDS011;7090;49.436;8.490;2023-04-24T13:21:53;8.00;;;7.63;;
14030;SDS011;7090;49.436;8.490;2023-04-24T13:24:20;8.63;;;8.23;;
14030;SDS011;7090;49.436;8.490;2023-04-24T13:26:49;8.63;;;8.20;;
14030;SDS011;7090;49.436;8.490;2023-04-24T13:29:15;9.98;;;9.38;;
14030;SDS011;7090;49.436;8.490;2023-04-24T13:31:40;9.30;;;8.70;;
14030;SDS011;7090;49.436;8.490;2023-04-24T13:34:06;9.00;;;8.50;;
14030;SDS011;7090;49.436;8.490;2023-04-24T13:36:32;8.88;;;8.32;;
14030;SDS011;7090;49.436;8.490;2023-04-24T13:38:57;9.63;;;9.02;;
14030;SDS011;7090;49.436;8.490;2023-04-24T13:41:23;8.40;;;8.00;;
14030;SDS011;7090;49.436;8.490;2023-04-24T13:43:49;7.88;;;7.47;;
14030;SDS011;7090;49.436;8.490;2023-04-24T13:46:15;9.95;;;9.20;;
14030;SDS011;7090;49.436;8.490;2023-04-24T13:48:41;9.55;;;8.93;;
14030;SDS011;7090;49.436;8.490;2023-04-24T13:51:06;9.65;;;9.05;;
14030;SDS011;7090;49.436;8.490;2023-04-24T13:53:32;10.07;;;9.48;;
14030;SDS011;7090;49.436;8.490;2023-04-24T13:56:00;8.47;;;8.07;;
14030;SDS011;7090;49.436;8.490;2023-04-24T13:58:27;7.77;;;7.43;;
14030;SDS011;7090;49.436;8.490;2023-04-24T14:00:53;8.03;;;7.57;;
14030;SDS011;7090;49.436;8.490;2023-04-24T14:03:18;7.93;;;7.53;;
14030;SDS011;7090;49.436;8.490;2023-04-24T14:05:44;7.80;;;7.40;;
14030;SDS011;7090;49.436;8.490;2023-04-24T14:08:09;7.47;;;7.17;;
14030;SDS011;7090;49.436;8.490;2023-04-24T14:10:35;7.97;;;7.47;;
14030;SDS011;7090;49.436;8.490;2023-04-24T14:13:00;8.47;;;8.03;;
14030;SDS011;7090;49.436;8.490;2023-04-24T14:15:26;7.80;;;7.40;;
14030;SDS011;7090;49.436;8.490;2023-04-24T14:17:52;8.30;;;7.77;;
14030;SDS011;7090;49.436;8.490;2023-04-24T14:20:18;7.43;;;7.13;;
14030;SDS011;7090;49.436;8.490;2023-04-24T14:22:44;7.70;;;7.40;;
14030;SDS011;7090;49.436;8.490;2023-04-24T14:25:10;13.30;;;12.20;;
14030;SDS011;7090;49.436;8.490;2023-04-24T14:27:36;13.00;;;12.20;;
14030;SDS011;7090;49.436;8.490;2023-04-24T14:30:01;18.00;;;16.80;;
14030;SDS011;7090;49.436;8.490;2023-04-24T14:32:28;16.33;;;15.53;;
14030;SDS011;7090;49.436;8.490;2023-04-24T14:34:53;17.20;;;16.27;;
14030;SDS011;7090;49.436;8.490;2023-04-24T14:37:19;15.37;;;14.67;;
14030;SDS011;7090;49.436;8.490;2023-04-24T14:39:45;16.40;;;15.50;;
14030;SDS011;7090;49.436;8.490;2023-04-24T14:42:10;15.83;;;15.03;;
14030;SDS011;7090;49.436;8.490;2023-04-24T14:44:36;14.17;;;13.57;;
14030;SDS011;7090;49.436;8.490;2023-04-24T14:47:01;14.70;;;13.90;;
14030;SDS011;7090;49.436;8.490;2023-04-24T14:49:27;16.10;;;15.10;;
14030;SDS011;7090;49.436;8.490;2023-04-24T14:51:52;12.33;;;11.53;;
14030;SDS011;7090;49.436;8.490;2023-04-24T14:54:18;13.23;;;12.30;;
14030;SDS011;7090;49.436;8.490;2023-04-24T14:56:44;13.32;;;12.52;;
14030;SDS011;7090;49.436;8.490;2023-04-24T14:59:10;11.80;;;11.20;;
14030;SDS011;7090;49.436;8.490;2023-04-24T15:01:35;11.20;;;10.57;;
14030;SDS011;7090;49.436;8.490;2023-04-24T15:04:01;10.13;;;9.63;;
14030;SDS011;7090;49.436;8.490;2023-04-24T15:06:27;9.30;;;8.90;;
14030;SDS011;7090;49.436;8.490;2023-04-24T15:08:52;8.70;;;8.40;;
14030;SDS011;7090;49.436;8.490;2023-04-24T15:11:18;8.87;;;8.47;;
14030;SDS011;7090;49.436;8.490;2023-04-24T15:13:44;10.07;;;9.17;;